createdAt,value
2018-05-18T00:00:54.570Z,17.62
2018-05-18T00:01:59.991Z,18.48
2018-05-18T00:03:05.406Z,17.73
2018-05-18T00:04:10.927Z,18.80
2018-05-18T00:05:16.465Z,17.55
2018-05-18T00:06:21.857Z,17.90
2018-05-18T00:07:27.313Z,18.47
2018-05-18T00:08:32.808Z,16.80
2018-05-18T00:09:38.330Z,16.95
2018-05-18T00:10:43.734Z,16.43
2018-05-18T00:11:49.156Z,17.48
2018-05-18T00:12:54.654Z,17.08
2018-05-18T00:14:00.062Z,17.17
2018-05-18T00:15:05.543Z,16.70
2018-05-18T00:16:10.946Z,16.73
2018-05-18T00:17:16.423Z,18.02
2018-05-18T00:18:21.819Z,16.20
2018-05-18T00:19:27.275Z,16.70
2018-05-18T00:20:33.159Z,17.52
2018-05-18T00:21:38.498Z,16.17
2018-05-18T00:22:43.809Z,17.58
2018-05-18T00:23:49.221Z,16.60
2018-05-18T00:24:54.607Z,16.17
2018-05-18T00:26:00.051Z,15.93
2018-05-18T00:27:05.517Z,16.00
2018-05-18T00:28:10.919Z,17.20
2018-05-18T00:29:16.308Z,17.00
2018-05-18T00:30:21.758Z,16.10
2018-05-18T00:31:27.164Z,15.60
2018-05-18T00:32:32.555Z,16.67
2018-05-18T00:33:38.015Z,16.73
2018-05-18T00:34:43.651Z,16.95
2018-05-18T00:35:49.057Z,17.20
2018-05-18T00:36:54.711Z,17.98
2018-05-18T00:38:00.584Z,17.98
2018-05-18T00:39:06.326Z,17.58
2018-05-18T00:40:11.919Z,16.95
2018-05-18T00:41:17.445Z,17.23
2018-05-18T00:42:22.928Z,20.10
2018-05-18T00:43:29.284Z,18.92
2018-05-18T00:44:34.734Z,18.12
2018-05-18T00:45:40.150Z,20.30
2018-05-18T00:46:45.576Z,20.23
2018-05-18T00:47:51.030Z,23.10
2018-05-18T00:48:56.722Z,20.77
2018-05-18T00:50:02.145Z,22.67
2018-05-18T00:51:07.585Z,21.10
2018-05-18T00:52:13.013Z,22.50
2018-05-18T00:53:18.420Z,22.55
2018-05-18T00:54:23.888Z,22.60
2018-05-18T00:55:33.652Z,20.45
2018-05-18T00:56:39.296Z,21.20
2018-05-18T00:57:44.707Z,21.05
2018-05-18T00:58:50.078Z,19.70
2018-05-18T00:59:55.779Z,20.33
2018-05-18T01:01:01.237Z,21.08
2018-05-18T01:02:06.627Z,19.48
2018-05-18T01:03:12.070Z,19.17
2018-05-18T01:04:17.641Z,18.70
2018-05-18T01:05:23.639Z,18.02
2018-05-18T01:06:29.016Z,18.30
2018-05-18T01:07:34.320Z,18.27
2018-05-18T01:08:39.656Z,18.00
2018-05-18T01:09:44.997Z,18.15
2018-05-18T01:10:50.320Z,18.73
2018-05-18T01:11:56.060Z,18.73
2018-05-18T01:13:01.385Z,19.33
2018-05-18T01:14:07.129Z,16.87
2018-05-18T01:15:12.499Z,17.65
2018-05-18T01:16:17.854Z,17.20
2018-05-18T01:17:23.298Z,26.73
2018-05-18T01:18:28.752Z,25.60
2018-05-18T01:19:34.280Z,20.58
2018-05-18T01:20:39.909Z,18.90
2018-05-18T01:21:45.471Z,19.35
2018-05-18T01:22:51.022Z,18.85
2018-05-18T01:23:56.647Z,21.60
2018-05-18T01:25:01.993Z,20.80
2018-05-18T01:26:07.303Z,21.15
2018-05-18T01:27:12.599Z,23.45
2018-05-18T01:28:18.039Z,23.23
2018-05-18T01:29:23.359Z,25.25
2018-05-18T01:30:28.770Z,24.85
2018-05-18T01:31:34.107Z,26.33
2018-05-18T01:32:39.528Z,27.35
2018-05-18T01:33:45.084Z,28.58
2018-05-18T01:34:50.544Z,25.27
2018-05-18T01:35:55.954Z,25.05
2018-05-18T01:37:01.343Z,24.03
2018-05-18T01:38:06.773Z,24.05
2018-05-18T01:39:12.160Z,23.45
2018-05-18T01:40:17.576Z,21.48
2018-05-18T01:41:22.992Z,19.53
2018-05-18T01:42:28.432Z,18.00
2018-05-18T01:43:34.337Z,17.25
2018-05-18T01:44:39.808Z,16.25
2018-05-18T01:45:45.197Z,16.73
2018-05-18T01:46:50.616Z,19.48
2018-05-18T01:47:56.005Z,20.85
2018-05-18T01:49:01.603Z,19.27
2018-05-18T01:50:07.284Z,19.73
2018-05-18T01:51:12.691Z,18.15
2018-05-18T01:52:18.033Z,17.92
2018-05-18T01:53:23.422Z,19.12
2018-05-18T01:54:28.808Z,19.40
2018-05-18T01:55:34.190Z,18.98
2018-05-18T01:56:39.606Z,20.00
2018-05-18T01:57:44.994Z,23.08
2018-05-18T01:58:50.510Z,24.63
2018-05-18T01:59:56.224Z,28.55
2018-05-18T02:01:01.760Z,29.95
2018-05-18T02:02:07.437Z,29.80
2018-05-18T02:03:12.752Z,29.80
2018-05-18T02:04:18.149Z,28.47
2018-05-18T02:05:23.543Z,27.77
2018-05-18T02:06:29.494Z,26.50
2018-05-18T02:07:35.232Z,25.02
2018-05-18T02:08:40.615Z,25.10
2018-05-18T02:09:46.114Z,25.42
2018-05-18T02:10:51.529Z,22.60
2018-05-18T02:11:57.212Z,20.67
2018-05-18T02:13:02.882Z,20.40
2018-05-18T02:14:08.405Z,19.35
2018-05-18T02:15:13.749Z,18.80
2018-05-18T02:16:19.132Z,18.23
2018-05-18T02:17:24.519Z,18.27
2018-05-18T02:18:29.920Z,18.35
2018-05-18T02:19:35.239Z,20.80
2018-05-18T02:20:41.216Z,21.10
2018-05-18T02:21:46.595Z,21.40
2018-05-18T02:22:51.975Z,21.27
2018-05-18T02:23:57.361Z,22.90
2018-05-18T02:25:02.855Z,22.90
2018-05-18T02:26:08.616Z,21.45
2018-05-18T02:27:14.254Z,22.00
2018-05-18T02:28:19.847Z,20.98
2018-05-18T02:29:25.253Z,21.08
2018-05-18T02:30:30.674Z,20.62
2018-05-18T02:31:36.469Z,20.48
2018-05-18T02:32:42.067Z,19.10
2018-05-18T02:33:47.673Z,19.48
2018-05-18T02:34:53.073Z,20.95
2018-05-18T02:35:58.834Z,19.10
2018-05-18T02:37:04.527Z,19.27
2018-05-18T02:38:09.989Z,19.17
2018-05-18T02:39:15.394Z,18.12
2018-05-18T02:40:20.890Z,18.33
2018-05-18T02:41:26.631Z,18.27
2018-05-18T02:42:32.124Z,17.80
2018-05-18T02:43:37.545Z,17.27
2018-05-18T02:44:42.943Z,17.65
2018-05-18T02:45:48.574Z,15.48
2018-05-18T02:46:54.973Z,16.50
2018-05-18T02:48:00.725Z,16.27
2018-05-18T02:49:06.164Z,16.75
2018-05-18T02:50:11.594Z,16.70
2018-05-18T02:51:17.009Z,17.98
2018-05-18T02:52:22.571Z,16.55
2018-05-18T02:53:28.221Z,15.98
2018-05-18T02:54:33.615Z,15.32
2018-05-18T02:55:39.017Z,15.23
2018-05-18T02:56:44.426Z,16.62
2018-05-18T02:57:49.888Z,16.90
2018-05-18T02:58:55.308Z,17.25
2018-05-18T03:00:00.915Z,17.27
2018-05-18T03:01:06.921Z,16.15
2018-05-18T03:02:12.483Z,17.05
2018-05-18T03:03:17.892Z,17.60
2018-05-18T03:04:23.697Z,18.23
2018-05-18T03:05:29.389Z,17.15
2018-05-18T03:06:34.823Z,16.48
2018-05-18T03:07:40.227Z,16.95
2018-05-18T03:08:45.635Z,16.50
2018-05-18T03:09:51.046Z,17.73
2018-05-18T03:10:56.512Z,17.35
2018-05-18T03:12:02.234Z,17.67
2018-05-18T03:13:07.624Z,16.48
2018-05-18T03:14:13.052Z,16.00
2018-05-18T03:15:18.558Z,16.95
2018-05-18T03:16:23.955Z,16.85
2018-05-18T03:17:29.623Z,17.50
2018-05-18T03:18:34.994Z,18.27
2018-05-18T03:19:40.435Z,20.40
2018-05-18T03:20:45.866Z,18.98
2018-05-18T03:21:51.330Z,20.40
2018-05-18T03:22:57.103Z,18.30
2018-05-18T03:24:02.527Z,19.05
2018-05-18T03:25:07.911Z,21.00
2018-05-18T03:26:13.317Z,22.05
2018-05-18T03:27:18.725Z,20.08
2018-05-18T03:28:24.526Z,21.90
2018-05-18T03:29:30.028Z,21.45
2018-05-18T03:30:35.490Z,22.83
2018-05-18T03:31:40.927Z,23.05
2018-05-18T03:32:46.367Z,24.40
2018-05-18T03:33:51.822Z,24.50
2018-05-18T03:34:57.517Z,23.40
2018-05-18T03:36:03.207Z,22.67
2018-05-18T03:37:08.609Z,23.20
2018-05-18T03:38:14.043Z,19.87
2018-05-18T03:39:19.499Z,18.83
2018-05-18T03:40:25.057Z,19.33
2018-05-18T03:41:30.985Z,18.80
2018-05-18T03:42:36.352Z,17.05
2018-05-18T03:43:42.003Z,16.65
2018-05-18T03:44:47.405Z,16.90
2018-05-18T03:45:53.086Z,16.60
2018-05-18T03:46:58.475Z,15.27
2018-05-18T03:48:03.886Z,15.00
2018-05-18T03:49:09.328Z,15.57
2018-05-18T03:50:14.831Z,16.62
2018-05-18T03:51:20.247Z,16.37
2018-05-18T03:52:25.639Z,14.15
2018-05-18T03:53:31.027Z,14.57
2018-05-18T03:54:36.743Z,14.25
2018-05-18T03:55:42.144Z,14.75
2018-05-18T03:56:47.550Z,14.98
2018-05-18T03:57:52.950Z,14.60
2018-05-18T03:58:58.314Z,13.60
2018-05-18T04:00:04.386Z,12.52
2018-05-18T04:01:10.378Z,12.73
2018-05-18T04:04:28.207Z,11.80
2018-05-18T04:07:40.076Z,12.07
2018-05-18T04:08:45.927Z,12.23
2018-05-18T04:09:51.618Z,11.60
2018-05-18T04:10:56.971Z,12.02
2018-05-18T04:12:02.381Z,11.48
2018-05-18T04:13:08.642Z,12.07
2018-05-18T04:14:14.044Z,11.43
2018-05-18T04:15:19.628Z,12.83
2018-05-18T04:16:25.059Z,12.43
2018-05-18T04:17:30.467Z,13.02
2018-05-18T04:18:35.836Z,13.80
2018-05-18T04:19:41.251Z,17.55
2018-05-18T04:20:46.648Z,17.42
2018-05-18T04:21:52.138Z,24.15
2018-05-18T04:22:57.711Z,24.48
2018-05-18T04:24:03.095Z,24.87
2018-05-18T04:25:08.495Z,31.23
2018-05-18T04:26:13.891Z,36.10
2018-05-18T04:27:19.302Z,36.53
2018-05-18T04:28:24.875Z,37.42
2018-05-18T04:29:30.278Z,38.73
2018-05-18T04:30:35.659Z,25.17
2018-05-18T04:31:41.092Z,20.70
2018-05-18T04:32:46.460Z,20.25
2018-05-18T04:33:51.911Z,27.20
2018-05-18T04:34:57.354Z,26.23
2018-05-18T04:36:02.856Z,28.10
2018-05-18T04:37:08.391Z,26.40
2018-05-18T04:38:14.681Z,23.67
2018-05-18T04:39:20.283Z,18.98
2018-05-18T04:40:25.697Z,14.43
2018-05-18T04:41:31.298Z,13.73
2018-05-18T04:42:36.691Z,13.00
2018-05-18T04:43:42.130Z,13.50
2018-05-18T04:44:47.597Z,12.60
2018-05-18T04:45:53.102Z,12.30
2018-05-18T04:46:58.580Z,12.90
2018-05-18T04:48:03.963Z,13.75
2018-05-18T04:49:09.358Z,13.90
2018-05-18T04:50:15.080Z,15.27
2018-05-18T04:51:20.484Z,14.65
2018-05-18T04:52:26.424Z,14.18
2018-05-18T04:53:31.828Z,13.85
2018-05-18T04:54:37.445Z,12.48
2018-05-18T04:55:48.209Z,13.00
2018-05-18T04:56:53.630Z,12.82
2018-05-18T04:57:59.061Z,12.53
2018-05-18T04:59:04.478Z,12.10
2018-05-18T05:00:10.144Z,11.63
2018-05-18T05:01:15.941Z,13.75
2018-05-18T05:02:21.356Z,13.32
2018-05-18T05:03:26.826Z,13.83
2018-05-18T05:04:32.242Z,14.35
2018-05-18T05:05:37.817Z,13.23
2018-05-18T05:06:43.587Z,12.40
2018-05-18T05:07:48.984Z,13.55
2018-05-18T05:08:54.433Z,13.95
2018-05-18T05:10:04.914Z,16.62
2018-05-18T05:11:10.399Z,16.83
2018-05-18T05:12:16.237Z,16.62
2018-05-18T05:13:21.771Z,16.48
2018-05-18T05:14:27.462Z,15.70
2018-05-18T05:15:33.690Z,15.10
2018-05-18T05:16:39.169Z,16.10
2018-05-18T05:17:44.574Z,19.12
2018-05-18T05:18:49.982Z,22.25
2018-05-18T05:19:55.401Z,20.52
2018-05-18T05:21:00.851Z,20.08
2018-05-18T05:22:06.338Z,19.93
2018-05-18T05:23:12.129Z,19.12
2018-05-18T05:24:17.763Z,20.50
2018-05-18T05:25:23.182Z,22.02
2018-05-18T05:26:28.583Z,26.42
2018-05-18T05:27:34.126Z,22.93
2018-05-18T05:28:39.531Z,23.45
2018-05-18T05:29:45.174Z,24.90
2018-05-18T05:30:50.560Z,24.08
2018-05-18T05:31:56.018Z,24.42
2018-05-18T05:33:01.423Z,24.98
2018-05-18T05:35:09.487Z,23.93
2018-05-18T05:36:14.946Z,32.20
2018-05-18T05:37:20.382Z,29.70
2018-05-18T05:38:25.841Z,29.10
2018-05-18T05:39:31.160Z,27.27
2018-05-18T05:40:36.523Z,28.02
2018-05-18T05:41:42.248Z,28.80
2018-05-18T05:42:47.647Z,30.02
2018-05-18T05:43:53.055Z,29.67
2018-05-18T05:44:58.493Z,27.90
2018-05-18T05:46:04.036Z,29.65
2018-05-18T05:47:09.629Z,27.17
2018-05-18T05:48:15.065Z,27.70
2018-05-18T05:49:20.490Z,34.85
2018-05-18T05:50:26.051Z,29.60
2018-05-18T05:51:31.485Z,29.17
2018-05-18T05:52:37.218Z,30.02
2018-05-18T05:53:42.614Z,28.77
2018-05-18T05:54:48.247Z,32.55
2018-05-18T05:55:53.659Z,31.00
2018-05-18T05:56:59.115Z,29.98
2018-05-18T05:58:04.984Z,27.67
2018-05-18T05:59:10.400Z,30.73
2018-05-18T06:00:15.846Z,29.42
2018-05-18T06:01:21.267Z,30.55
2018-05-18T06:02:26.676Z,28.20
2018-05-18T06:03:32.295Z,29.05
2018-05-18T06:04:37.691Z,28.17
2018-05-18T06:05:43.140Z,27.10
2018-05-18T06:06:48.575Z,26.52
2018-05-18T06:07:53.977Z,26.50
2018-05-18T06:08:59.369Z,26.05
2018-05-18T06:10:04.819Z,27.33
2018-05-18T06:11:10.227Z,25.70
2018-05-18T06:12:15.686Z,25.27
2018-05-18T06:13:21.242Z,27.65
2018-05-18T06:14:26.801Z,24.42
2018-05-18T06:15:32.205Z,25.67
2018-05-18T06:16:37.629Z,24.75
2018-05-18T06:17:43.033Z,26.65
2018-05-18T06:18:48.460Z,33.03
2018-05-18T06:19:53.879Z,35.95
2018-05-18T06:20:59.595Z,36.47
2018-05-18T06:22:05.587Z,37.67
2018-05-18T06:23:11.143Z,40.83
2018-05-18T06:24:16.827Z,40.30
2018-05-18T06:25:22.243Z,39.08
2018-05-18T06:26:27.657Z,38.28
2018-05-18T06:27:33.082Z,42.15
2018-05-18T06:28:38.547Z,38.58
2018-05-18T06:29:44.044Z,35.78
2018-05-18T06:30:49.410Z,32.65
2018-05-18T06:31:55.118Z,33.87
2018-05-18T06:33:01.364Z,34.30
2018-05-18T06:34:06.808Z,28.05
2018-05-18T06:35:12.282Z,27.60
2018-05-18T06:36:17.686Z,30.75
2018-05-18T06:37:23.097Z,36.63
2018-05-18T06:38:28.514Z,40.05
2018-05-18T06:39:33.933Z,37.42
2018-05-18T06:40:39.371Z,38.22
2018-05-18T06:41:44.920Z,36.97
2018-05-18T06:42:50.357Z,34.30
2018-05-18T06:43:55.883Z,28.73
2018-05-18T06:45:01.306Z,29.20
2018-05-18T06:46:06.746Z,28.20
2018-05-18T06:47:12.175Z,24.80
2018-05-18T06:48:17.859Z,23.73
2018-05-18T06:49:23.289Z,23.60
2018-05-18T06:50:28.707Z,22.62
2018-05-18T06:51:34.285Z,21.35
2018-05-18T06:52:39.756Z,18.50
2018-05-18T06:53:45.165Z,16.23
2018-05-18T06:54:50.583Z,14.75
2018-05-18T06:55:56.292Z,14.73
2018-05-18T06:57:01.726Z,12.75
2018-05-18T06:58:07.126Z,16.50
2018-05-18T06:59:12.839Z,18.23
2018-05-18T07:00:18.342Z,23.80
2018-05-18T07:01:23.774Z,24.30
2018-05-18T07:02:29.176Z,28.10
2018-05-18T07:03:34.610Z,30.05
2018-05-18T07:04:40.089Z,30.50
2018-05-18T07:05:45.545Z,31.27
2018-05-18T07:06:50.948Z,29.73
2018-05-18T07:07:56.431Z,30.20
2018-05-18T07:09:01.852Z,31.15
2018-05-18T07:10:07.402Z,29.20
2018-05-18T07:11:13.108Z,30.95
2018-05-18T07:12:18.514Z,33.90
2018-05-18T07:13:23.974Z,33.97
2018-05-18T07:14:29.436Z,36.80
2018-05-18T07:15:34.867Z,37.67
2018-05-18T07:16:40.345Z,38.23
2018-05-18T07:17:45.991Z,40.03
2018-05-18T07:18:51.771Z,41.20
2018-05-18T07:19:57.474Z,38.80
2018-05-18T07:21:02.932Z,39.43
2018-05-18T07:22:08.802Z,37.85
2018-05-18T07:23:14.220Z,39.60
2018-05-18T07:24:19.701Z,39.25
2018-05-18T07:25:25.098Z,39.03
2018-05-18T07:26:30.571Z,38.95
2018-05-18T07:27:36.332Z,39.20
2018-05-18T07:28:41.747Z,37.75
2018-05-18T07:29:47.199Z,40.05
2018-05-18T07:30:52.768Z,38.22
2018-05-18T07:31:58.177Z,37.78
2018-05-18T07:33:03.583Z,39.53
2018-05-18T07:34:09.020Z,39.53
2018-05-18T07:35:14.459Z,38.72
2018-05-18T07:36:20.183Z,39.22
2018-05-18T07:37:25.655Z,39.50
2018-05-18T07:38:31.628Z,38.72
2018-05-18T07:39:37.085Z,38.95
2018-05-18T07:40:42.563Z,36.67
2018-05-18T07:41:49.015Z,37.93
2018-05-18T07:42:54.917Z,37.60
2018-05-18T07:44:00.664Z,39.43
2018-05-18T07:45:06.146Z,36.72
2018-05-18T07:46:12.260Z,38.65
2018-05-18T07:47:17.719Z,39.38
2018-05-18T07:48:23.379Z,37.85
2018-05-18T07:49:29.162Z,36.17
2018-05-18T07:50:34.949Z,37.90
2018-05-18T07:51:40.394Z,37.25
2018-05-18T07:52:45.972Z,38.45
2018-05-18T07:53:51.737Z,37.55
2018-05-18T07:54:58.120Z,36.72
2018-05-18T07:56:03.557Z,38.40
2018-05-18T07:57:09.015Z,38.50
2018-05-18T07:58:14.491Z,37.30
2018-05-18T07:59:20.076Z,36.03
2018-05-18T08:00:25.690Z,36.55
2018-05-18T08:01:31.397Z,33.45
2018-05-18T08:02:36.824Z,36.88
2018-05-18T08:03:42.262Z,34.55
2018-05-18T08:04:47.747Z,33.92
2018-05-18T08:05:53.309Z,34.25
2018-05-18T08:06:59.136Z,34.58
2018-05-18T08:08:04.703Z,33.58
2018-05-18T08:09:10.319Z,35.40
2018-05-18T08:10:15.840Z,34.38
2018-05-18T08:11:21.568Z,33.13
2018-05-18T08:12:27.100Z,32.33
2018-05-18T08:13:32.550Z,31.73
2018-05-18T08:14:38.109Z,32.33
2018-05-18T08:15:43.783Z,32.92
2018-05-18T08:16:49.189Z,31.27
2018-05-18T08:17:55.005Z,33.13
2018-05-18T08:19:00.491Z,30.75
2018-05-18T08:20:05.992Z,31.60
2018-05-18T08:21:11.532Z,30.33
2018-05-18T08:22:16.978Z,30.65
2018-05-18T08:23:22.547Z,31.05
2018-05-18T08:24:28.166Z,30.00
2018-05-18T08:25:33.597Z,25.25
2018-05-18T08:26:39.079Z,25.75
2018-05-18T08:27:44.863Z,26.83
2018-05-18T08:28:54.732Z,29.52
2018-05-18T08:30:00.317Z,28.90
2018-05-18T08:31:09.616Z,31.55
2018-05-18T08:32:15.135Z,30.60
2018-05-18T08:33:21.032Z,30.48
2018-05-18T08:34:27.044Z,29.70
2018-05-18T08:35:32.662Z,29.02
2018-05-18T08:36:38.108Z,30.02
2018-05-18T08:37:43.770Z,30.00
2018-05-18T08:38:49.214Z,30.83
2018-05-18T08:39:54.957Z,29.42
2018-05-18T08:41:00.600Z,28.70
2018-05-18T08:42:06.157Z,28.77
2018-05-18T08:43:11.594Z,31.40
2018-05-18T08:44:17.570Z,38.38
2018-05-18T08:45:23.475Z,33.95
2018-05-18T08:46:29.139Z,33.00
2018-05-18T08:47:34.943Z,29.10
2018-05-18T08:48:40.366Z,28.35
2018-05-18T08:49:45.812Z,27.48
2018-05-18T08:50:51.323Z,26.95
2018-05-18T08:51:56.947Z,25.95
2018-05-18T08:53:02.362Z,25.45
2018-05-18T08:54:08.600Z,25.48
2018-05-18T08:55:14.062Z,24.37
2018-05-18T08:56:19.762Z,24.70
2018-05-18T08:57:25.220Z,23.20
2018-05-18T08:58:30.808Z,22.85
2018-05-18T08:59:36.292Z,21.87
2018-05-18T09:00:41.758Z,22.60
2018-05-18T09:01:47.152Z,21.83
2018-05-18T09:02:52.917Z,21.67
2018-05-18T09:03:58.427Z,22.73
2018-05-18T09:05:04.002Z,22.85
2018-05-18T09:06:09.739Z,22.25
2018-05-18T09:07:15.223Z,23.92
2018-05-18T09:08:20.701Z,21.70
2018-05-18T09:09:56.560Z,24.60
2018-05-18T09:11:01.999Z,22.37
2018-05-18T09:12:07.449Z,22.00
2018-05-18T09:13:12.906Z,21.95
2018-05-18T09:14:18.420Z,22.08
2018-05-18T09:15:36.060Z,22.23
2018-05-18T09:16:43.237Z,23.45
2018-05-18T09:17:59.562Z,21.90
2018-05-18T09:19:20.377Z,22.27
2018-05-18T09:20:25.917Z,22.65
2018-05-18T09:21:34.198Z,23.08
2018-05-18T09:22:39.669Z,22.27
2018-05-18T09:23:45.520Z,22.95
2018-05-18T09:24:52.307Z,20.62
2018-05-18T09:26:00.022Z,19.92
2018-05-18T09:27:05.559Z,19.85
2018-05-18T09:28:53.354Z,21.30
2018-05-18T09:29:59.317Z,20.95
2018-05-18T09:31:04.873Z,21.10
2018-05-18T09:32:10.342Z,20.33
2018-05-18T09:33:16.278Z,20.58
2018-05-18T09:34:21.793Z,20.55
2018-05-18T09:35:27.516Z,21.10
2018-05-18T09:36:34.564Z,20.70
2018-05-18T09:37:40.491Z,20.17
2018-05-18T09:38:46.149Z,21.00
2018-05-18T09:39:51.851Z,21.33
2018-05-18T09:40:57.264Z,19.80
2018-05-18T09:42:02.759Z,20.95
2018-05-18T09:43:08.395Z,21.98
2018-05-18T09:44:14.098Z,24.80
2018-05-18T09:45:19.550Z,25.27
2018-05-18T09:46:25.460Z,30.30
2018-05-18T09:47:30.958Z,24.67
2018-05-18T09:48:36.464Z,23.12
2018-05-18T09:49:41.963Z,22.17
2018-05-18T09:50:47.505Z,20.27
2018-05-18T09:53:35.318Z,20.35
2018-05-18T09:54:41.179Z,23.40
2018-05-18T09:55:47.407Z,29.27
2018-05-18T09:56:53.613Z,21.08
2018-05-18T09:57:59.636Z,20.27
2018-05-18T09:59:05.078Z,20.00
2018-05-18T10:00:10.658Z,18.60
2018-05-18T10:01:16.121Z,17.90
2018-05-18T10:02:22.334Z,19.85
2018-05-18T10:03:27.902Z,17.92
2018-05-18T10:04:33.460Z,20.73
2018-05-18T10:05:39.193Z,17.98
2018-05-18T10:06:44.754Z,17.90
2018-05-18T10:07:50.572Z,15.98
2018-05-18T10:08:56.106Z,17.87
2018-05-18T10:10:06.233Z,28.48
2018-05-18T10:11:20.110Z,21.73
2018-05-18T10:12:25.692Z,16.20
2018-05-18T10:13:32.852Z,15.65
2018-05-18T10:14:38.385Z,25.50
2018-05-18T10:15:43.898Z,17.83
2018-05-18T10:16:51.957Z,15.53
2018-05-18T10:17:59.348Z,13.30
2018-05-18T10:19:05.022Z,14.20
2018-05-18T10:20:11.514Z,13.05
2018-05-18T10:21:21.942Z,13.73
2018-05-18T10:22:29.551Z,14.20
2018-05-18T10:23:35.174Z,14.23
2018-05-18T10:24:40.685Z,12.95
2018-05-18T10:25:46.418Z,14.00
2018-05-18T10:26:54.988Z,12.85
2018-05-18T10:28:01.632Z,12.80
2018-05-18T10:29:08.755Z,13.70
2018-05-18T10:30:14.870Z,13.50
2018-05-18T10:31:20.322Z,12.82
2018-05-18T10:32:27.251Z,12.13
2018-05-18T10:33:36.835Z,11.90
2018-05-18T10:34:44.563Z,11.12
2018-05-18T10:35:50.132Z,12.90
2018-05-18T10:36:55.875Z,13.57
2018-05-18T10:38:03.981Z,12.00
2018-05-18T10:39:09.780Z,11.98
2018-05-18T10:40:15.227Z,11.73
2018-05-18T10:41:20.752Z,11.23
2018-05-18T10:42:26.176Z,12.23
2018-05-18T10:43:31.645Z,10.60
2018-05-18T10:44:37.106Z,10.77
2018-05-18T10:45:42.680Z,11.60
2018-05-18T10:46:48.158Z,10.00
2018-05-18T10:47:53.590Z,9.70
2018-05-18T10:48:59.073Z,9.60
2018-05-18T10:50:04.813Z,8.90
2018-05-18T10:51:10.561Z,32.80
2018-05-18T10:52:15.996Z,10.35
2018-05-18T10:53:21.491Z,9.35
2018-05-18T10:54:26.887Z,9.33
2018-05-18T10:55:32.681Z,9.80
2018-05-18T10:56:38.266Z,8.90
2018-05-18T10:57:43.769Z,8.85
2018-05-18T10:58:49.224Z,9.13
2018-05-18T10:59:54.826Z,8.57
2018-05-18T11:01:00.287Z,8.95
2018-05-18T11:02:05.785Z,9.40
2018-05-18T11:03:11.211Z,9.30
2018-05-18T11:04:16.647Z,8.93
2018-05-18T11:05:22.226Z,8.60
2018-05-18T11:06:30.940Z,8.38
2018-05-18T11:07:36.703Z,8.25
2018-05-18T11:08:43.656Z,8.30
2018-05-18T11:09:49.229Z,8.65
2018-05-18T11:10:54.669Z,8.73
2018-05-18T11:12:00.778Z,7.77
2018-05-18T11:13:08.005Z,7.57
2018-05-18T11:14:13.846Z,20.45
2018-05-18T11:15:21.270Z,8.05
2018-05-18T11:16:26.739Z,7.60
2018-05-18T11:17:33.423Z,7.90
2018-05-18T11:18:40.235Z,9.25
2018-05-18T11:19:47.655Z,7.50
2018-05-18T11:20:54.452Z,8.45
2018-05-18T11:22:01.647Z,7.32
2018-05-18T11:23:07.125Z,7.90
2018-05-18T11:24:12.646Z,7.28
2018-05-18T11:25:19.682Z,7.12
2018-05-18T11:26:26.279Z,11.07
2018-05-18T11:27:34.858Z,10.00
2018-05-18T11:28:41.465Z,12.10
2018-05-18T11:29:47.589Z,16.48
2018-05-18T11:30:53.131Z,17.65
2018-05-18T11:31:59.939Z,9.15
2018-05-18T11:33:05.554Z,11.30
2018-05-18T11:34:11.089Z,16.37
2018-05-18T11:35:17.720Z,13.93
2018-05-18T11:36:23.199Z,14.73
2018-05-18T11:37:28.720Z,19.70
2018-05-18T11:38:36.089Z,22.95
2018-05-18T11:39:41.590Z,11.35
2018-05-18T11:40:49.509Z,10.68
2018-05-18T11:41:56.194Z,9.85
2018-05-18T11:43:03.841Z,10.70
2018-05-18T11:44:20.128Z,11.20
2018-05-18T11:45:25.574Z,10.23
2018-05-18T11:46:31.144Z,13.85
2018-05-18T11:47:41.754Z,16.05
2018-05-18T11:48:49.620Z,12.10
2018-05-18T11:49:56.260Z,13.27
2018-05-18T11:51:03.173Z,9.17
2018-05-18T11:52:10.752Z,9.00
2018-05-18T11:53:16.429Z,7.50
2018-05-18T11:54:23.463Z,8.27
2018-05-18T11:55:28.972Z,9.13
2018-05-18T11:56:36.022Z,8.25
2018-05-18T11:57:41.761Z,7.12
2018-05-18T11:58:47.551Z,6.82
2018-05-18T11:59:53.065Z,7.25
2018-05-18T12:00:58.516Z,6.15
2018-05-18T12:02:04.035Z,6.85
2018-05-18T12:03:09.864Z,7.93
2018-05-18T12:04:15.595Z,8.25
2018-05-18T12:05:21.089Z,7.53
2018-05-18T12:06:26.514Z,7.20
2018-05-18T12:07:31.975Z,7.00
2018-05-18T12:08:37.499Z,6.00
2018-05-18T12:09:43.112Z,6.80
2018-05-18T12:10:48.962Z,7.10
2018-05-18T12:11:54.460Z,9.27
2018-05-18T12:12:59.933Z,9.23
2018-05-18T12:14:05.510Z,10.67
2018-05-18T12:15:11.502Z,13.40
2018-05-18T12:16:17.834Z,12.02
2018-05-18T12:17:28.923Z,10.40
2018-05-18T12:18:35.348Z,12.80
2018-05-18T12:19:40.907Z,9.80
2018-05-18T12:20:46.458Z,9.10
2018-05-18T12:21:51.896Z,8.05
2018-05-18T12:22:57.580Z,11.45
2018-05-18T12:24:03.077Z,10.35
2018-05-18T12:25:08.706Z,14.27
2018-05-18T12:26:14.288Z,12.75
2018-05-18T12:27:19.667Z,8.85
2018-05-18T12:28:25.159Z,8.57
2018-05-18T12:29:30.600Z,8.93
2018-05-18T12:30:38.353Z,8.98
2018-05-18T12:31:44.356Z,7.57
2018-05-18T12:32:49.797Z,10.50
2018-05-18T12:33:55.398Z,8.18
2018-05-18T12:35:02.907Z,8.90
2018-05-18T12:36:09.839Z,8.57
2018-05-18T12:37:15.713Z,8.30
2018-05-18T12:38:21.944Z,7.18
2018-05-18T12:39:27.378Z,7.60
2018-05-18T12:40:32.967Z,6.80
2018-05-18T12:41:38.464Z,7.28
2018-05-18T12:42:46.143Z,6.20
2018-05-18T12:43:52.161Z,7.33
2018-05-18T12:44:57.881Z,7.40
2018-05-18T12:46:03.603Z,7.55
2018-05-18T12:47:09.428Z,6.30
2018-05-18T12:48:15.344Z,6.45
2018-05-18T12:49:20.894Z,7.30
2018-05-18T12:50:27.894Z,6.57
2018-05-18T12:51:33.601Z,6.40
2018-05-18T12:52:43.848Z,7.35
2018-05-18T12:53:49.959Z,6.82
2018-05-18T12:54:55.472Z,6.12
2018-05-18T12:56:01.041Z,6.65
2018-05-18T12:57:06.553Z,6.37
2018-05-18T12:58:12.089Z,7.30
2018-05-18T12:59:22.719Z,6.82
2018-05-18T13:00:28.476Z,6.10
2018-05-18T13:01:36.381Z,6.53
2018-05-18T13:02:43.452Z,5.93
2018-05-18T13:03:51.652Z,6.80
2018-05-18T13:04:57.816Z,5.80
2018-05-18T13:06:03.335Z,6.82
2018-05-18T13:07:11.372Z,7.07
2018-05-18T13:08:17.390Z,7.00
2018-05-18T13:09:22.932Z,6.40
2018-05-18T13:10:28.492Z,7.25
2018-05-18T13:11:33.975Z,8.70
2018-05-18T13:12:39.428Z,10.35
2018-05-18T13:13:44.896Z,11.35
2018-05-18T13:14:50.325Z,10.55
2018-05-18T13:15:55.819Z,12.75
2018-05-18T13:17:08.910Z,19.05
2018-05-18T13:18:14.641Z,15.05
2018-05-18T13:19:22.184Z,7.22
2018-05-18T13:20:30.417Z,36.20
2018-05-18T13:21:36.297Z,7.40
2018-05-18T13:22:42.045Z,8.70
2018-05-18T13:23:50.095Z,8.27
2018-05-18T13:24:56.715Z,10.35
2018-05-18T13:26:02.158Z,12.07
2018-05-18T13:27:07.599Z,7.87
2018-05-18T13:28:14.435Z,9.40
2018-05-18T13:29:19.881Z,9.23
2018-05-18T13:30:26.211Z,13.80
2018-05-18T13:31:31.701Z,8.13
2018-05-18T13:32:38.836Z,7.87
2018-05-18T13:33:44.333Z,7.07
2018-05-18T13:34:51.085Z,6.87
2018-05-18T13:35:56.720Z,7.85
2018-05-18T13:37:02.215Z,6.15
2018-05-18T13:38:07.736Z,5.83
2018-05-18T13:39:13.272Z,6.45
2018-05-18T13:40:19.712Z,7.18
2018-05-18T13:41:25.422Z,7.20
2018-05-18T13:42:30.857Z,7.35
2018-05-18T13:43:36.302Z,6.80
2018-05-18T13:44:41.754Z,7.47
2018-05-18T13:45:47.467Z,6.93
2018-05-18T13:46:52.937Z,7.10
2018-05-18T13:47:58.391Z,6.93
2018-05-18T13:49:03.822Z,7.80
2018-05-18T13:50:09.233Z,7.00
2018-05-18T13:51:15.116Z,6.43
2018-05-18T13:52:20.932Z,6.72
2018-05-18T13:53:26.378Z,6.13
2018-05-18T13:54:31.779Z,5.30
2018-05-18T13:55:37.236Z,5.60
2018-05-18T13:56:42.712Z,5.72
2018-05-18T13:57:48.195Z,6.35
2018-05-18T13:58:53.633Z,6.23
2018-05-18T13:59:59.224Z,6.82
2018-05-18T14:01:04.673Z,6.82
2018-05-18T14:02:10.435Z,5.93
2018-05-18T14:03:15.900Z,5.90
2018-05-18T14:04:21.366Z,5.30
2018-05-18T14:05:26.801Z,5.93
2018-05-18T14:06:32.308Z,5.90
2018-05-18T14:07:38.177Z,6.50
2018-05-18T14:08:43.571Z,6.32
2018-05-18T14:09:49.107Z,6.20
2018-05-18T14:10:54.585Z,6.15
2018-05-18T14:12:00.047Z,6.10
2018-05-18T14:13:05.773Z,5.47
2018-05-18T14:14:11.368Z,5.22
2018-05-18T14:15:16.833Z,6.17
2018-05-18T14:16:24.820Z,5.90
2018-05-18T14:17:32.805Z,5.95
2018-05-18T14:18:41.349Z,5.18
2018-05-18T14:19:49.248Z,5.82
2018-05-18T14:20:57.424Z,7.68
2018-05-18T14:22:06.116Z,10.07